createdAt,value
2024-02-29T00:00:10.736Z,5.21
2024-02-29T00:02:38.070Z,5.05
2024-02-29T00:05:06.457Z,5.12
2024-02-29T00:07:35.144Z,5.20
2024-02-29T00:10:02.546Z,5.23
2024-02-29T00:12:29.952Z,5.05
2024-02-29T00:14:57.247Z,5.16
2024-02-29T00:17:24.581Z,5.27
2024-02-29T00:19:51.914Z,5.35
2024-02-29T00:22:19.279Z,5.40
2024-02-29T00:24:47.987Z,5.50
2024-02-29T00:27:15.345Z,5.48
2024-02-29T00:29:43.706Z,5.59
2024-02-29T00:32:11.021Z,5.68
2024-02-29T00:34:38.317Z,5.69
2024-02-29T00:37:05.936Z,5.77
2024-02-29T00:39:33.282Z,5.66
2024-02-29T00:42:01.987Z,5.62
2024-02-29T00:44:29.310Z,5.55
2024-02-29T00:46:56.636Z,5.45
2024-02-29T00:49:24.020Z,5.62
2024-02-29T00:51:51.380Z,5.68
2024-02-29T00:54:18.746Z,5.80
2024-02-29T00:56:46.059Z,5.81
2024-02-29T00:59:14.762Z,5.78
2024-02-29T01:01:42.245Z,5.67
2024-02-29T01:04:09.684Z,5.69
2024-02-29T01:06:37.066Z,5.68
2024-02-29T01:09:04.390Z,5.64
2024-02-29T01:11:32.676Z,5.38
2024-02-29T01:14:00.097Z,5.25
2024-02-29T01:16:28.780Z,5.19
2024-02-29T01:18:56.186Z,5.36
2024-02-29T01:21:23.554Z,5.28
2024-02-29T01:23:50.887Z,5.39
2024-02-29T01:26:18.216Z,5.52
2024-02-29T01:28:45.589Z,5.49
2024-02-29T01:31:13.069Z,5.49
2024-02-29T01:33:41.899Z,5.62
2024-02-29T01:36:09.290Z,5.74
2024-02-29T01:38:36.644Z,5.59
2024-02-29T01:41:04.262Z,5.57
2024-02-29T01:43:31.559Z,5.38
2024-02-29T01:46:12.001Z,5.29
2024-02-29T01:48:41.197Z,5.36
2024-02-29T01:51:09.531Z,5.24
2024-02-29T01:53:36.887Z,5.24
2024-02-29T01:56:04.824Z,5.32
2024-02-29T01:58:33.431Z,5.43
2024-02-29T02:01:01.032Z,5.49
2024-02-29T02:03:28.715Z,5.55
2024-02-29T02:05:57.407Z,5.66
2024-02-29T02:08:25.280Z,5.74
2024-02-29T02:10:52.662Z,5.83
2024-02-29T02:13:20.027Z,5.85
2024-02-29T02:15:47.538Z,5.84
2024-02-29T02:18:14.885Z,5.71
2024-02-29T02:20:43.608Z,5.47
2024-02-29T02:23:10.960Z,5.56
2024-02-29T02:25:38.277Z,5.59
2024-02-29T02:28:06.041Z,5.73
2024-02-29T02:30:33.430Z,5.77
2024-02-29T02:33:02.097Z,5.85
2024-02-29T02:35:29.439Z,6.01
2024-02-29T02:37:58.122Z,6.08
2024-02-29T02:40:25.594Z,6.03
2024-02-29T02:42:52.911Z,5.91
2024-02-29T02:45:20.332Z,5.85
2024-02-29T02:47:47.692Z,5.74
2024-02-29T02:50:15.180Z,5.75
2024-02-29T02:52:42.534Z,5.76
2024-02-29T02:55:11.315Z,5.74
2024-02-29T02:57:38.801Z,5.64
2024-02-29T03:00:07.945Z,5.60
2024-02-29T03:02:35.297Z,5.67
2024-02-29T03:05:02.621Z,5.69
2024-02-29T03:07:29.904Z,5.63
2024-02-29T03:09:57.387Z,5.57
2024-02-29T03:12:26.095Z,5.53
2024-02-29T03:14:53.446Z,5.44
2024-02-29T03:17:20.786Z,5.30
2024-02-29T03:19:48.097Z,5.14
2024-02-29T03:22:15.475Z,5.07
2024-02-29T03:24:42.804Z,4.93
2024-02-29T03:27:10.441Z,4.83
2024-02-29T03:29:39.278Z,4.75
2024-02-29T03:32:06.773Z,4.68
2024-02-29T03:34:34.136Z,4.67
2024-02-29T03:37:01.455Z,4.67
2024-02-29T03:39:28.756Z,4.74
2024-02-29T03:41:56.059Z,4.63
2024-02-29T03:44:23.389Z,4.70
2024-02-29T03:46:52.430Z,4.80
2024-02-29T03:49:19.771Z,4.96
2024-02-29T03:51:47.201Z,5.01
2024-02-29T03:54:14.584Z,5.16
2024-02-29T03:56:41.891Z,5.30
2024-02-29T03:59:09.212Z,5.26
2024-02-29T04:01:36.656Z,5.37
2024-02-29T04:04:05.560Z,5.39
2024-02-29T04:06:32.937Z,5.44
2024-02-29T04:09:00.274Z,5.45
2024-02-29T04:11:27.663Z,5.36
2024-02-29T04:13:54.990Z,5.36
2024-02-29T04:16:22.387Z,5.42
2024-02-29T04:18:49.758Z,5.49
2024-02-29T04:21:18.626Z,5.45
2024-02-29T04:23:45.961Z,5.47
2024-02-29T04:26:13.301Z,5.42
2024-02-29T04:28:40.619Z,5.38
2024-02-29T04:31:07.935Z,5.46
2024-02-29T04:33:35.442Z,5.54
2024-02-29T04:36:02.885Z,5.55
2024-02-29T04:38:31.582Z,5.53
2024-02-29T04:40:58.918Z,5.47
2024-02-29T04:43:26.252Z,5.32
2024-02-29T04:45:53.564Z,5.26
2024-02-29T04:48:20.900Z,5.38
2024-02-29T04:50:48.276Z,5.31
2024-02-29T04:53:15.595Z,5.34
2024-02-29T04:55:44.286Z,5.45
2024-02-29T04:58:11.733Z,5.47
2024-02-29T05:00:39.170Z,5.61
2024-02-29T05:03:06.605Z,5.60
2024-02-29T05:05:33.972Z,5.63
2024-02-29T05:08:01.298Z,5.55
2024-02-29T05:10:28.624Z,5.66
2024-02-29T05:12:57.332Z,5.76
2024-02-29T05:15:24.703Z,5.91
2024-02-29T05:17:53.126Z,5.93
2024-02-29T05:20:20.460Z,5.92
2024-02-29T05:22:47.766Z,5.85
2024-02-29T05:25:15.197Z,5.82
2024-02-29T05:27:42.568Z,5.75
2024-02-29T05:30:12.521Z,5.65
2024-02-29T05:32:39.854Z,5.55
2024-02-29T05:35:08.238Z,5.68
2024-02-29T05:37:35.586Z,5.72
2024-02-29T05:40:03.292Z,5.90
2024-02-29T05:42:30.699Z,5.93
2024-02-29T05:44:58.009Z,5.93
2024-02-29T05:47:26.752Z,5.95
2024-02-29T05:49:54.101Z,5.82
2024-02-29T05:52:21.619Z,5.84
2024-02-29T05:54:49.000Z,5.83
2024-02-29T05:57:16.366Z,5.85
2024-02-29T05:59:43.705Z,5.83
2024-02-29T06:02:11.089Z,5.78
2024-02-29T06:04:39.834Z,5.85
2024-02-29T06:07:07.169Z,5.73
2024-02-29T06:09:34.762Z,5.67
2024-02-29T06:12:02.265Z,5.70
2024-02-29T06:14:29.585Z,5.78
2024-02-29T06:16:56.881Z,5.72
2024-02-29T06:19:24.208Z,5.80
2024-02-29T06:21:52.921Z,5.68
2024-02-29T06:24:20.361Z,5.73
2024-02-29T06:26:47.869Z,5.77
2024-02-29T06:29:15.238Z,5.77
2024-02-29T06:31:42.598Z,5.80
2024-02-29T06:34:10.010Z,5.83
2024-02-29T06:36:37.440Z,5.78
2024-02-29T06:39:06.154Z,5.66
2024-02-29T06:41:33.495Z,5.63
2024-02-29T06:44:00.828Z,5.53
2024-02-29T06:46:28.124Z,5.50
2024-02-29T06:48:55.677Z,5.44
2024-02-29T06:51:23.046Z,5.48
2024-02-29T06:53:50.592Z,5.58
2024-02-29T06:56:19.280Z,5.31
2024-02-29T06:58:46.589Z,5.24
2024-02-29T07:01:14.353Z,5.46
2024-02-29T07:03:41.807Z,5.52
2024-02-29T07:06:09.134Z,5.64
2024-02-29T07:08:36.577Z,5.74
2024-02-29T07:11:04.098Z,5.86
2024-02-29T07:13:32.850Z,6.01
2024-02-29T07:16:00.270Z,6.01
2024-02-29T07:18:27.625Z,6.08
2024-02-29T07:20:54.927Z,6.13
2024-02-29T07:23:22.289Z,6.23
2024-02-29T07:25:49.639Z,6.28
2024-02-29T07:28:17.085Z,6.12
2024-02-29T07:30:45.811Z,6.32
2024-02-29T07:33:13.265Z,6.54
2024-02-29T07:35:40.700Z,6.76
2024-02-29T07:38:08.003Z,6.93
2024-02-29T07:40:35.347Z,7.22
2024-02-29T07:43:02.769Z,7.35
2024-02-29T07:45:30.170Z,7.33
2024-02-29T07:47:59.252Z,7.41
2024-02-29T07:50:26.595Z,7.36
2024-02-29T07:52:54.153Z,7.43
2024-02-29T07:55:21.681Z,7.57
2024-02-29T07:57:49.176Z,7.60
2024-02-29T08:00:17.037Z,7.70
2024-02-29T08:02:44.841Z,7.80
2024-02-29T08:05:13.794Z,7.78
2024-02-29T08:07:41.170Z,7.75
2024-02-29T08:10:09.381Z,7.79
2024-02-29T08:12:36.749Z,7.72
2024-02-29T08:15:04.583Z,7.74
2024-02-29T08:17:31.934Z,7.60
2024-02-29T08:20:00.389Z,7.55
2024-02-29T08:22:29.293Z,7.49
2024-02-29T08:24:56.661Z,7.46
2024-02-29T08:27:24.685Z,7.77
2024-02-29T08:29:51.989Z,7.79
2024-02-29T08:32:19.390Z,8.10
2024-02-29T08:34:46.797Z,8.01
2024-02-29T08:37:14.226Z,8.04
2024-02-29T08:39:43.050Z,8.13
2024-02-29T08:42:10.401Z,8.17
2024-02-29T08:44:37.729Z,8.16
2024-02-29T08:47:05.403Z,8.16
2024-02-29T08:49:32.832Z,8.27
2024-02-29T08:52:00.210Z,8.37
2024-02-29T08:54:27.581Z,8.05
2024-02-29T08:56:56.294Z,8.02
2024-02-29T08:59:23.655Z,8.37
2024-02-29T09:01:51.181Z,8.70
2024-02-29T09:04:18.679Z,8.88
2024-02-29T09:06:46.103Z,9.23
2024-02-29T09:09:13.464Z,9.42
2024-02-29T09:11:40.804Z,9.42
2024-02-29T09:14:09.649Z,9.38
2024-02-29T09:16:37.033Z,9.63
2024-02-29T09:19:04.747Z,9.74
2024-02-29T09:21:32.146Z,9.96
2024-02-29T09:23:59.474Z,10.01
2024-02-29T09:26:26.797Z,10.09
2024-02-29T09:28:54.223Z,10.27
2024-02-29T09:31:23.083Z,10.43
2024-02-29T09:33:50.480Z,10.61
2024-02-29T09:36:18.003Z,10.66
2024-02-29T09:38:45.368Z,10.94
2024-02-29T09:41:31.935Z,11.11
2024-02-29T09:44:03.938Z,10.71
2024-02-29T09:46:32.673Z,10.58
2024-02-29T09:49:00.252Z,10.94
2024-02-29T09:51:29.742Z,11.18
2024-02-29T09:53:57.589Z,11.34
2024-02-29T09:56:27.382Z,11.57
2024-02-29T09:58:55.521Z,11.53
2024-02-29T10:01:23.437Z,11.64
2024-02-29T10:03:53.285Z,11.73
2024-02-29T10:06:20.637Z,11.85
2024-02-29T10:08:48.034Z,11.98
2024-02-29T10:11:15.594Z,11.95
2024-02-29T10:13:43.168Z,11.92
2024-02-29T10:16:11.392Z,11.98
2024-02-29T10:18:38.858Z,11.51
2024-02-29T10:21:10.641Z,11.87
2024-02-29T10:23:38.094Z,12.06
2024-02-29T10:26:06.336Z,12.06
2024-02-29T10:28:33.948Z,12.12
2024-02-29T10:31:01.634Z,12.18
2024-02-29T10:33:29.499Z,12.22
2024-02-29T10:35:57.268Z,12.21
2024-02-29T10:38:26.043Z,12.17
2024-02-29T10:40:58.939Z,12.15
2024-02-29T10:43:27.425Z,12.30
2024-02-29T10:45:55.000Z,12.01
2024-02-29T10:48:30.721Z,12.21
2024-02-29T10:51:03.909Z,12.31
2024-02-29T10:53:43.697Z,12.25
2024-02-29T10:56:20.480Z,12.54
2024-02-29T10:58:54.457Z,12.45
2024-02-29T11:01:22.449Z,12.45
2024-02-29T11:03:49.824Z,12.40
2024-02-29T11:06:18.594Z,12.51
2024-02-29T11:08:47.989Z,12.72
2024-02-29T11:11:15.415Z,12.85
2024-02-29T11:13:42.904Z,12.71
2024-02-29T11:16:10.985Z,12.93
2024-02-29T11:18:38.369Z,12.99
2024-02-29T11:21:06.806Z,13.07
2024-02-29T11:23:34.938Z,13.32
2024-02-29T11:26:06.919Z,13.43
2024-02-29T11:28:38.020Z,13.48
2024-02-29T11:31:17.192Z,13.31
2024-02-29T11:33:45.438Z,13.35
2024-02-29T11:36:13.488Z,13.52
2024-02-29T11:38:41.338Z,13.31
2024-02-29T11:41:19.386Z,13.30
2024-02-29T11:43:47.715Z,13.66
2024-02-29T11:46:15.289Z,13.90
2024-02-29T11:48:43.032Z,14.00
2024-02-29T11:51:10.516Z,14.30
2024-02-29T11:53:39.439Z,14.46
2024-02-29T11:56:15.163Z,14.53
2024-02-29T11:58:45.729Z,14.50
2024-02-29T12:01:14.228Z,14.48
2024-02-29T12:03:41.809Z,14.44
2024-02-29T12:06:09.379Z,14.38
2024-02-29T12:08:39.462Z,14.24
2024-02-29T12:11:07.606Z,14.09
2024-02-29T12:13:35.114Z,14.20
2024-02-29T12:16:04.861Z,14.44
2024-02-29T12:18:34.682Z,14.33
2024-02-29T12:21:02.079Z,14.11
2024-02-29T12:23:31.295Z,14.11
2024-02-29T12:26:07.770Z,14.09
2024-02-29T12:28:36.007Z,14.05
2024-02-29T12:31:05.778Z,14.17
2024-02-29T12:33:33.434Z,14.40
2024-02-29T12:36:01.267Z,14.39
2024-02-29T12:38:28.611Z,14.41
2024-02-29T12:43:46.862Z,13.96
2024-02-29T12:46:16.736Z,14.02
2024-02-29T12:48:44.718Z,14.13
2024-02-29T12:51:12.082Z,14.19
2024-02-29T12:53:39.395Z,14.29
2024-02-29T12:56:06.829Z,14.17
2024-02-29T12:58:34.304Z,14.27
2024-02-29T13:01:01.839Z,14.59
2024-02-29T13:03:30.759Z,14.71
2024-02-29T13:05:58.078Z,14.74
2024-02-29T13:08:25.404Z,15.07
2024-02-29T13:10:52.807Z,15.21
2024-02-29T13:13:20.164Z,15.54
2024-02-29T13:15:47.553Z,15.55
2024-02-29T13:18:15.003Z,15.28
2024-02-29T13:20:43.716Z,15.41
2024-02-29T13:23:11.069Z,15.24
2024-02-29T13:25:38.560Z,15.30
2024-02-29T13:28:06.173Z,15.36
2024-02-29T13:30:48.822Z,15.31
2024-02-29T13:33:16.266Z,15.66
2024-02-29T13:35:45.031Z,15.63
2024-02-29T13:38:12.417Z,15.45
2024-02-29T13:40:39.741Z,15.29
2024-02-29T13:43:08.048Z,15.09
2024-02-29T13:45:37.712Z,15.16
2024-02-29T13:48:05.773Z,15.17
2024-02-29T13:50:33.196Z,14.95
2024-02-29T13:53:01.887Z,14.77
2024-02-29T13:55:29.268Z,14.68
2024-02-29T13:57:56.810Z,14.52
2024-02-29T14:00:24.214Z,14.67
2024-02-29T14:02:51.549Z,14.74
2024-02-29T14:05:18.877Z,14.95
2024-02-29T14:07:48.755Z,15.05
2024-02-29T14:10:18.283Z,15.11
2024-02-29T14:12:45.619Z,14.59
2024-02-29T14:15:12.956Z,14.62
2024-02-29T14:17:40.389Z,14.52
2024-02-29T14:20:08.363Z,14.30
2024-02-29T14:22:35.733Z,14.47
2024-02-29T14:25:03.417Z,14.48
2024-02-29T14:27:32.320Z,14.41
2024-02-29T14:29:59.681Z,14.58
2024-02-29T14:32:27.081Z,14.77
2024-02-29T14:34:54.388Z,14.86
2024-02-29T14:37:21.842Z,14.73
2024-02-29T14:39:49.394Z,14.57
2024-02-29T14:42:16.724Z,14.67
2024-02-29T14:44:45.418Z,14.71
2024-02-29T14:47:12.796Z,14.64
2024-02-29T14:49:40.143Z,14.65
2024-02-29T14:52:07.824Z,14.50
2024-02-29T14:54:35.340Z,14.28
2024-02-29T14:57:02.939Z,14.33
2024-02-29T14:59:30.280Z,14.55
2024-02-29T15:01:59.105Z,14.56
2024-02-29T15:04:26.604Z,14.32
2024-02-29T15:06:54.101Z,14.17
2024-02-29T15:09:21.566Z,13.97
2024-02-29T15:11:48.999Z,13.71
2024-02-29T15:14:16.879Z,13.57
2024-02-29T15:16:44.856Z,13.43
2024-02-29T15:19:13.675Z,13.03
2024-02-29T15:21:41.103Z,12.96
2024-02-29T15:24:08.447Z,12.96
2024-02-29T15:26:35.793Z,13.06
2024-02-29T15:29:03.145Z,12.92
2024-02-29T15:31:30.561Z,12.92
2024-02-29T15:33:58.583Z,12.65
2024-02-29T15:36:27.345Z,12.72
2024-02-29T15:38:54.763Z,12.75
2024-02-29T15:41:22.085Z,12.73
2024-02-29T15:43:49.509Z,12.49
2024-02-29T15:46:17.211Z,12.28
2024-02-29T15:48:45.172Z,12.33
2024-02-29T15:51:12.540Z,12.12
2024-02-29T15:53:41.576Z,11.80
2024-02-29T15:56:08.976Z,11.67
2024-02-29T15:58:36.693Z,11.67
2024-02-29T16:01:04.320Z,11.45
2024-02-29T16:03:31.945Z,11.44
2024-02-29T16:05:59.253Z,11.56
2024-02-29T16:08:26.580Z,11.65
2024-02-29T16:10:55.357Z,11.77
2024-02-29T16:13:22.860Z,11.79
2024-02-29T16:15:50.325Z,11.83
2024-02-29T16:18:17.740Z,12.03
2024-02-29T16:20:45.124Z,12.17
2024-02-29T16:23:12.465Z,12.25
2024-02-29T16:25:39.893Z,12.34
2024-02-29T16:28:08.715Z,12.27
2024-02-29T16:30:36.043Z,12.42
2024-02-29T16:33:03.740Z,12.07
2024-02-29T16:35:31.203Z,12.03
2024-02-29T16:37:59.780Z,11.85
2024-02-29T16:40:27.274Z,11.83
2024-02-29T16:42:54.785Z,11.59
2024-02-29T16:45:23.546Z,11.57
2024-02-29T16:47:50.980Z,11.43
2024-02-29T16:50:18.516Z,11.25
2024-02-29T16:52:45.856Z,10.32
2024-02-29T16:55:13.730Z,9.46
2024-02-29T16:57:41.480Z,9.09
2024-02-29T17:00:10.157Z,9.03
2024-02-29T17:02:38.940Z,8.89
2024-02-29T17:05:06.445Z,8.87
2024-02-29T17:07:33.808Z,9.02
2024-02-29T17:10:01.240Z,9.10
2024-02-29T17:12:28.670Z,9.05
2024-02-29T17:14:56.018Z,8.98
2024-02-29T17:17:23.450Z,8.98
2024-02-29T17:19:52.201Z,8.99
2024-02-29T17:22:19.544Z,9.10
2024-02-29T17:24:46.944Z,9.16
2024-02-29T17:27:14.528Z,9.24
2024-02-29T17:29:42.015Z,9.17
2024-02-29T17:32:09.439Z,9.23
2024-02-29T17:34:36.758Z,9.28
2024-02-29T17:37:05.674Z,9.37
2024-02-29T17:39:33.014Z,9.45
2024-02-29T17:42:00.359Z,9.36
2024-02-29T17:44:28.034Z,9.29
2024-02-29T17:46:55.353Z,9.30
2024-02-29T17:49:22.813Z,9.36
2024-02-29T17:51:50.229Z,9.44
2024-02-29T17:54:18.993Z,9.63
2024-02-29T17:56:51.791Z,9.50
2024-02-29T17:59:20.099Z,9.50
2024-02-29T18:01:47.539Z,9.41
2024-02-29T18:04:14.950Z,9.44
2024-02-29T18:06:42.469Z,9.37
2024-02-29T18:09:09.813Z,9.32
2024-02-29T18:11:39.042Z,9.22
2024-02-29T18:14:06.456Z,9.17
2024-02-29T18:16:34.442Z,9.03
2024-02-29T18:19:02.078Z,8.96
2024-02-29T18:21:29.557Z,8.96
2024-02-29T18:23:56.881Z,9.01
2024-02-29T18:26:24.310Z,8.92
2024-02-29T18:28:53.005Z,8.84
2024-02-29T18:31:20.351Z,8.79
2024-02-29T18:33:47.776Z,8.83
2024-02-29T18:36:15.105Z,8.77
2024-02-29T18:38:42.436Z,8.73
2024-02-29T18:41:09.799Z,8.57
2024-02-29T18:43:37.111Z,8.44
2024-02-29T18:46:06.874Z,8.35
2024-02-29T18:48:34.775Z,8.31
2024-02-29T18:51:02.151Z,8.20
2024-02-29T18:53:29.516Z,8.13
2024-02-29T18:55:56.862Z,8.23
2024-02-29T18:58:24.316Z,8.22
2024-02-29T19:00:51.843Z,8.29
2024-02-29T19:03:20.587Z,8.39
2024-02-29T19:05:47.929Z,8.35
2024-02-29T19:08:15.297Z,8.19
2024-02-29T19:10:42.865Z,8.22
2024-02-29T19:13:10.327Z,8.27
2024-02-29T19:15:37.697Z,8.36
2024-02-29T19:18:05.500Z,8.35
2024-02-29T19:20:34.277Z,8.32
2024-02-29T19:23:01.715Z,8.08
2024-02-29T19:25:29.113Z,8.03
2024-02-29T19:27:56.537Z,8.09
2024-02-29T19:30:23.928Z,8.26
2024-02-29T19:32:51.288Z,8.27
2024-02-29T19:35:18.712Z,8.21
2024-02-29T19:37:48.167Z,8.12
2024-02-29T19:40:15.719Z,8.01
2024-02-29T19:42:43.225Z,8.06
2024-02-29T19:45:11.470Z,7.95
2024-02-29T19:47:39.283Z,7.93
2024-02-29T19:50:07.835Z,7.81
2024-02-29T19:52:36.460Z,7.77
2024-02-29T19:55:06.733Z,7.85
2024-02-29T19:57:34.318Z,8.02
2024-02-29T20:00:01.658Z,7.92
2024-02-29T20:02:29.269Z,8.00
2024-02-29T20:04:56.589Z,8.00
2024-02-29T20:07:24.023Z,7.86
2024-02-29T20:09:51.402Z,7.92
2024-02-29T20:12:20.208Z,8.08
2024-02-29T20:14:47.735Z,8.05
2024-02-29T20:17:15.152Z,7.98
2024-02-29T20:19:42.700Z,8.03
2024-02-29T20:22:10.386Z,7.92
2024-02-29T20:24:37.752Z,7.85
2024-02-29T20:27:05.185Z,7.81
2024-02-29T20:29:33.881Z,7.91
2024-02-29T20:32:01.229Z,7.90
2024-02-29T20:34:28.671Z,7.74
2024-02-29T20:36:56.147Z,7.63
2024-02-29T20:39:23.520Z,7.58
2024-02-29T20:41:50.844Z,7.55
2024-02-29T20:44:18.244Z,7.50
2024-02-29T20:46:46.996Z,7.60
2024-02-29T20:49:14.486Z,7.52
2024-02-29T20:51:41.891Z,7.71
2024-02-29T20:54:09.313Z,7.65
2024-02-29T20:56:36.780Z,7.58
2024-02-29T20:59:04.130Z,7.61
2024-02-29T21:01:31.524Z,7.67
2024-02-29T21:04:00.364Z,7.63
2024-02-29T21:06:27.965Z,7.73
2024-02-29T21:08:55.295Z,7.60
2024-02-29T21:11:22.676Z,7.46
2024-02-29T21:13:50.070Z,7.43
2024-02-29T21:16:17.443Z,7.45
2024-02-29T21:18:44.812Z,7.34
2024-02-29T21:21:15.137Z,7.32
2024-02-29T21:23:43.575Z,7.37
2024-02-29T21:26:10.869Z,7.33
2024-02-29T21:28:38.272Z,7.22
2024-02-29T21:31:05.672Z,7.33
2024-02-29T21:33:33.006Z,7.19
2024-02-29T21:36:00.330Z,7.26
2024-02-29T21:38:29.121Z,7.28
2024-02-29T21:40:56.654Z,7.25
2024-02-29T21:43:24.258Z,7.08
2024-02-29T21:45:51.846Z,6.89
2024-02-29T21:48:19.169Z,6.93
2024-02-29T21:50:46.495Z,7.04
2024-02-29T21:53:13.858Z,7.05
2024-02-29T21:55:42.546Z,7.19
2024-02-29T21:58:09.933Z,7.28
2024-02-29T22:00:37.373Z,7.27
2024-02-29T22:03:05.235Z,7.29
2024-02-29T22:05:32.584Z,7.19
2024-02-29T22:07:59.912Z,7.09
2024-02-29T22:10:27.774Z,7.05
2024-02-29T22:12:56.661Z,7.20
2024-02-29T22:15:23.995Z,7.13
2024-02-29T22:17:51.366Z,7.22
2024-02-29T22:20:18.764Z,7.15
2024-02-29T22:22:46.088Z,7.10
2024-02-29T22:25:17.137Z,7.06
2024-02-29T22:27:44.577Z,7.05
2024-02-29T22:30:14.392Z,6.90
2024-02-29T22:32:41.754Z,6.55
2024-02-29T22:35:09.389Z,6.60
2024-02-29T22:37:36.837Z,6.44
2024-02-29T22:40:05.661Z,6.58
2024-02-29T22:42:33.028Z,6.80
2024-02-29T22:45:00.331Z,6.77
2024-02-29T22:47:29.073Z,6.84
2024-02-29T22:49:56.425Z,6.97
2024-02-29T22:52:23.897Z,6.94
2024-02-29T22:54:51.281Z,6.93
2024-02-29T22:57:18.601Z,7.09
2024-02-29T22:59:45.915Z,7.13
2024-02-29T23:02:13.428Z,7.04
2024-02-29T23:04:42.141Z,7.18
2024-02-29T23:07:09.546Z,7.00
2024-02-29T23:09:36.897Z,7.12
2024-02-29T23:12:04.526Z,7.26
2024-02-29T23:14:31.985Z,7.25
2024-02-29T23:16:59.360Z,7.17
2024-02-29T23:19:26.738Z,7.21
2024-02-29T23:21:55.452Z,7.05
2024-02-29T23:24:22.814Z,7.07
2024-02-29T23:26:50.125Z,7.14
2024-02-29T23:29:17.517Z,7.05
2024-02-29T23:31:44.830Z,7.13
2024-02-29T23:34:12.164Z,7.13
2024-02-29T23:36:39.523Z,7.17
2024-02-29T23:39:08.207Z,7.25
2024-02-29T23:41:35.543Z,7.16
2024-02-29T23:44:02.892Z,7.27
2024-02-29T23:46:30.321Z,7.17
2024-02-29T23:48:57.676Z,7.18
2024-02-29T23:51:25.017Z,7.21
2024-02-29T23:53:52.345Z,7.11
2024-02-29T23:56:21.034Z,7.24
2024-02-29T23:58:48.381Z,7.23
